sensor_id;sensor_type;location;lat;lon;timestamp;pressure;altitude;pressure_sealevel;temperature;humidity
39363;BME280;25088;43.238;23.110;2022-12-20T00:01:19;98608.66;;;-0.04;100.00
39363;BME280;25088;43.238;23.110;2022-12-20T00:03:45;98607.94;;;-0.06;100.00
39363;BME280;25088;43.238;23.110;2022-12-20T00:06:12;98601.84;;;-0.17;100.00
39363;BME280;25088;43.238;23.110;2022-12-20T00:08:38;98605.38;;;-0.17;100.00
39363;BME280;25088;43.238;23.110;2022-12-20T00:11:05;98603.97;;;-0.11;100.00
39363;BME280;25088;43.238;23.110;2022-12-20T00:13:31;98610.63;;;-0.06;100.00
39363;BME280;25088;43.238;23.110;2022-12-20T00:16:06;98609.34;;;-0.02;100.00
39363;BME280;25088;43.238;23.110;2022-12-20T00:18:32;98601.44;;;-0.03;100.00
39363;BME280;25088;43.238;23.110;2022-12-20T00:20:58;98614.88;;;-0.03;100.00
39363;BME280;25088;43.238;23.110;2022-12-20T00:23:23;98615.44;;;-0.09;100.00
39363;BME280;25088;43.238;23.110;2022-12-20T00:25:49;98606.09;;;-0.15;100.00
39363;BME280;25088;43.238;23.110;2022-12-20T00:28:14;98605.78;;;-0.21;100.00
39363;BME280;25088;43.238;23.110;2022-12-20T00:30:39;98615.50;;;-0.20;100.00
39363;BME280;25088;43.238;23.110;2022-12-20T00:33:04;98609.59;;;-0.24;100.00
39363;BME280;25088;43.238;23.110;2022-12-20T00:35:30;98611.28;;;-0.23;100.00
39363;BME280;25088;43.238;23.110;2022-12-20T00:37:55;98614.53;;;-0.29;100.00
39363;BME280;25088;43.238;23.110;2022-12-20T00:40:20;98610.97;;;-0.39;100.00
39363;BME280;25088;43.238;23.110;2022-12-20T00:42:46;98607.97;;;-0.36;100.00
39363;BME280;25088;43.238;23.110;2022-12-20T00:45:11;98612.78;;;-0.40;100.00
39363;BME280;25088;43.238;23.110;2022-12-20T00:47:36;98613.75;;;-0.41;100.00
39363;BME280;25088;43.238;23.110;2022-12-20T00:50:02;98606.28;;;-0.37;100.00
39363;BME280;25088;43.238;23.110;2022-12-20T00:52:27;98601.72;;;-0.46;100.00
39363;BME280;25088;43.238;23.110;2022-12-20T00:54:52;98593.97;;;-0.49;100.00
39363;BME280;25088;43.238;23.110;2022-12-20T00:57:18;98596.22;;;-0.45;100.00
39363;BME280;25088;43.238;23.110;2022-12-20T00:59:43;98592.84;;;-0.47;100.00
39363;BME280;25088;43.238;23.110;2022-12-20T01:02:08;98589.53;;;-0.60;100.00
39363;BME280;25088;43.238;23.110;2022-12-20T01:04:33;98589.41;;;-0.59;100.00
39363;BME280;25088;43.238;23.110;2022-12-20T01:06:59;98580.63;;;-0.61;100.00
39363;BME280;25088;43.238;23.110;2022-12-20T01:09:24;98583.47;;;-0.62;100.00
39363;BME280;25088;43.238;23.110;2022-12-20T01:11:50;98582.34;;;-0.60;100.00
39363;BME280;25088;43.238;23.110;2022-12-20T01:14:15;98583.91;;;-0.57;100.00
39363;BME280;25088;43.238;23.110;2022-12-20T01:16:42;98575.84;;;-0.57;100.00
39363;BME280;25088;43.238;23.110;2022-12-20T01:19:09;98573.44;;;-0.60;100.00
39363;BME280;25088;43.238;23.110;2022-12-20T01:21:35;98576.41;;;-0.63;100.00
39363;BME280;25088;43.238;23.110;2022-12-20T01:24:01;98580.78;;;-0.62;100.00
39363;BME280;25088;43.238;23.110;2022-12-20T01:26:26;98582.22;;;-0.58;100.00
39363;BME280;25088;43.238;23.110;2022-12-20T01:28:56;98575.44;;;-0.53;100.00
39363;BME280;25088;43.238;23.110;2022-12-20T01:31:22;98575.16;;;-0.59;100.00
39363;BME280;25088;43.238;23.110;2022-12-20T01:33:48;98574.31;;;-0.60;100.00
39363;BME280;25088;43.238;23.110;2022-12-20T01:36:18;98565.78;;;-0.65;100.00
39363;BME280;25088;43.238;23.110;2022-12-20T01:38:43;98566.19;;;-0.79;100.00
39363;BME280;25088;43.238;23.110;2022-12-20T01:41:13;98566.44;;;-0.82;100.00
39363;BME280;25088;43.238;23.110;2022-12-20T01:43:49;98566.25;;;-0.90;100.00
39363;BME280;25088;43.238;23.110;2022-12-20T01:46:16;98561.16;;;-0.93;100.00
39363;BME280;25088;43.238;23.110;2022-12-20T01:48:43;98556.66;;;-0.93;100.00
39363;BME280;25088;43.238;23.110;2022-12-20T01:51:10;98550.16;;;-0.90;100.00
39363;BME280;25088;43.238;23.110;2022-12-20T01:53:36;98553.28;;;-0.85;100.00
39363;BME280;25088;43.238;23.110;2022-12-20T01:56:02;98547.22;;;-0.87;100.00
39363;BME280;25088;43.238;23.110;2022-12-20T01:58:28;98541.84;;;-0.87;100.00
39363;BME280;25088;43.238;23.110;2022-12-20T02:00:54;98542.84;;;-0.88;100.00
39363;BME280;25088;43.238;23.110;2022-12-20T02:03:19;98544.94;;;-0.92;100.00
39363;BME280;25088;43.238;23.110;2022-12-20T02:05:45;98541.41;;;-0.92;100.00
39363;BME280;25088;43.238;23.110;2022-12-20T02:08:11;98539.03;;;-0.86;100.00
39363;BME280;25088;43.238;23.110;2022-12-20T02:13:06;98527.75;;;-0.89;100.00
39363;BME280;25088;43.238;23.110;2022-12-20T02:18:22;98533.38;;;-0.92;100.00
39363;BME280;25088;43.238;23.110;2022-12-20T02:26:13;98518.28;;;-0.93;100.00
39363;BME280;25088;43.238;23.110;2022-12-20T02:28:49;98516.59;;;-0.94;100.00
39363;BME280;25088;43.238;23.110;2022-12-20T02:31:24;98516.16;;;-0.90;100.00
39363;BME280;25088;43.238;23.110;2022-12-20T02:33:51;98505.31;;;-0.88;100.00
39363;BME280;25088;43.238;23.110;2022-12-20T02:36:19;98498.25;;;-0.89;100.00
39363;BME280;25088;43.238;23.110;2022-12-20T02:38:45;98499.53;;;-0.84;100.00
39363;BME280;25088;43.238;23.110;2022-12-20T02:44:04;98497.22;;;-0.98;100.00
39363;BME280;25088;43.238;23.110;2022-12-20T02:46:50;98493.28;;;-0.94;100.00
39363;BME280;25088;43.238;23.110;2022-12-20T02:49:17;98490.28;;;-1.00;100.00
39363;BME280;25088;43.238;23.110;2022-12-20T02:51:45;98490.84;;;-1.07;100.00
39363;BME280;25088;43.238;23.110;2022-12-20T02:54:11;98491.78;;;-1.17;100.00
39363;BME280;25088;43.238;23.110;2022-12-20T02:56:38;98483.72;;;-1.17;100.00
39363;BME280;25088;43.238;23.110;2022-12-20T02:59:17;98486.13;;;-1.24;100.00
39363;BME280;25088;43.238;23.110;2022-12-20T03:01:49;98479.75;;;-1.23;100.00
39363;BME280;25088;43.238;23.110;2022-12-20T03:04:15;98474.56;;;-1.15;100.00
39363;BME280;25088;43.238;23.110;2022-12-20T03:07:02;98475.84;;;-1.19;100.00
39363;BME280;25088;43.238;23.110;2022-12-20T03:09:27;98477.25;;;-1.15;100.00
39363;BME280;25088;43.238;23.110;2022-12-20T03:11:52;98484.59;;;-1.17;100.00
39363;BME280;25088;43.238;23.110;2022-12-20T03:14:18;98475.50;;;-1.25;100.00
39363;BME280;25088;43.238;23.110;2022-12-20T03:16:43;98478.78;;;-1.22;100.00
39363;BME280;25088;43.238;23.110;2022-12-20T03:19:09;98479.06;;;-1.15;100.00
39363;BME280;25088;43.238;23.110;2022-12-20T03:21:34;98487.13;;;-1.15;100.00
39363;BME280;25088;43.238;23.110;2022-12-20T03:23:59;98484.97;;;-1.21;100.00
39363;BME280;25088;43.238;23.110;2022-12-20T03:26:25;98482.56;;;-1.24;100.00
39363;BME280;25088;43.238;23.110;2022-12-20T03:28:50;98485.53;;;-1.27;100.00
39363;BME280;25088;43.238;23.110;2022-12-20T03:31:15;98485.31;;;-1.36;100.00
39363;BME280;25088;43.238;23.110;2022-12-20T03:33:41;98474.91;;;-1.39;100.00
39363;BME280;25088;43.238;23.110;2022-12-20T03:36:06;98479.97;;;-1.36;100.00
39363;BME280;25088;43.238;23.110;2022-12-20T03:38:31;98476.03;;;-1.32;100.00
39363;BME280;25088;43.238;23.110;2022-12-20T03:40:57;98477.63;;;-1.29;100.00
39363;BME280;25088;43.238;23.110;2022-12-20T03:43:22;98468.06;;;-1.22;100.00
39363;BME280;25088;43.238;23.110;2022-12-20T03:45:47;98467.91;;;-1.20;100.00
39363;BME280;25088;43.238;23.110;2022-12-20T03:48:13;98468.06;;;-1.22;100.00
39363;BME280;25088;43.238;23.110;2022-12-20T03:50:38;98469.31;;;-1.26;100.00
39363;BME280;25088;43.238;23.110;2022-12-20T03:53:03;98467.75;;;-1.28;100.00
39363;BME280;25088;43.238;23.110;2022-12-20T03:55:29;98465.19;;;-1.30;100.00
39363;BME280;25088;43.238;23.110;2022-12-20T03:57:54;98466.75;;;-1.27;100.00
39363;BME280;25088;43.238;23.110;2022-12-20T04:00:19;98464.34;;;-1.31;100.00
39363;BME280;25088;43.238;23.110;2022-12-20T04:02:45;98465.38;;;-1.22;100.00
39363;BME280;25088;43.238;23.110;2022-12-20T04:05:10;98455.06;;;-1.26;100.00
39363;BME280;25088;43.238;23.110;2022-12-20T04:07:35;98451.78;;;-1.30;100.00
39363;BME280;25088;43.238;23.110;2022-12-20T04:10:01;98450.09;;;-1.31;100.00
39363;BME280;25088;43.238;23.110;2022-12-20T04:12:26;98446.31;;;-1.28;100.00
39363;BME280;25088;43.238;23.110;2022-12-20T04:14:51;98436.84;;;-1.33;100.00
39363;BME280;25088;43.238;23.110;2022-12-20T04:17:17;98444.75;;;-1.31;100.00
39363;BME280;25088;43.238;23.110;2022-12-20T04:19:42;98442.06;;;-1.31;100.00
39363;BME280;25088;43.238;23.110;2022-12-20T04:22:08;98440.13;;;-1.29;100.00
39363;BME280;25088;43.238;23.110;2022-12-20T04:24:33;98434.06;;;-1.21;100.00
39363;BME280;25088;43.238;23.110;2022-12-20T04:26:58;98432.97;;;-1.19;100.00
39363;BME280;25088;43.238;23.110;2022-12-20T04:29:23;98436.59;;;-1.20;100.00
39363;BME280;25088;43.238;23.110;2022-12-20T04:31:49;98434.22;;;-1.23;100.00
39363;BME280;25088;43.238;23.110;2022-12-20T04:34:14;98429.28;;;-1.18;100.00
39363;BME280;25088;43.238;23.110;2022-12-20T04:36:39;98432.97;;;-1.19;100.00
39363;BME280;25088;43.238;23.110;2022-12-20T04:39:05;98426.16;;;-1.23;100.00
39363;BME280;25088;43.238;23.110;2022-12-20T04:41:30;98428.69;;;-1.21;100.00
39363;BME280;25088;43.238;23.110;2022-12-20T04:43:56;98430.66;;;-1.33;100.00
39363;BME280;25088;43.238;23.110;2022-12-20T04:46:22;98438.53;;;-1.32;100.00
39363;BME280;25088;43.238;23.110;2022-12-20T04:48:48;98435.59;;;-1.28;100.00
39363;BME280;25088;43.238;23.110;2022-12-20T04:51:13;98434.88;;;-1.31;100.00
39363;BME280;25088;43.238;23.110;2022-12-20T04:53:39;98428.66;;;-1.31;100.00
39363;BME280;25088;43.238;23.110;2022-12-20T04:56:20;98433.44;;;-1.35;100.00
39363;BME280;25088;43.238;23.110;2022-12-20T04:58:46;98436.44;;;-1.28;100.00
39363;BME280;25088;43.238;23.110;2022-12-20T05:01:12;98437.44;;;-1.29;100.00
39363;BME280;25088;43.238;23.110;2022-12-20T05:03:37;98435.47;;;-1.27;100.00
39363;BME280;25088;43.238;23.110;2022-12-20T05:06:03;98440.66;;;-1.25;100.00
39363;BME280;25088;43.238;23.110;2022-12-20T05:08:28;98437.88;;;-1.24;100.00
39363;BME280;25088;43.238;23.110;2022-12-20T05:10:54;98443.09;;;-1.22;100.00
39363;BME280;25088;43.238;23.110;2022-12-20T05:13:19;98438.59;;;-1.22;100.00
39363;BME280;25088;43.238;23.110;2022-12-20T05:15:45;98439.13;;;-1.28;100.00
39363;BME280;25088;43.238;23.110;2022-12-20T05:18:14;98443.50;;;-1.27;100.00
39363;BME280;25088;43.238;23.110;2022-12-20T05:20:39;98439.81;;;-1.26;100.00
39363;BME280;25088;43.238;23.110;2022-12-20T05:23:04;98441.47;;;-1.35;100.00
39363;BME280;25088;43.238;23.110;2022-12-20T05:25:49;98439.09;;;-1.38;100.00
39363;BME280;25088;43.238;23.110;2022-12-20T05:28:26;98436.41;;;-1.38;100.00
39363;BME280;25088;43.238;23.110;2022-12-20T05:30:52;98438.50;;;-1.41;100.00
39363;BME280;25088;43.238;23.110;2022-12-20T05:33:17;98437.06;;;-1.45;100.00
39363;BME280;25088;43.238;23.110;2022-12-20T05:35:42;98438.44;;;-1.51;100.00
39363;BME280;25088;43.238;23.110;2022-12-20T05:38:07;98434.53;;;-1.47;100.00
39363;BME280;25088;43.238;23.110;2022-12-20T05:40:33;98427.72;;;-1.51;100.00
39363;BME280;25088;43.238;23.110;2022-12-20T05:42:59;98437.34;;;-1.48;100.00
39363;BME280;25088;43.238;23.110;2022-12-20T05:45:25;98426.88;;;-1.51;100.00
39363;BME280;25088;43.238;23.110;2022-12-20T05:47:50;98376.69;;;-1.80;100.00
39363;BME280;25088;43.238;23.110;2022-12-20T05:50:16;98413.19;;;-1.58;100.00
39363;BME280;25088;43.238;23.110;2022-12-20T05:52:41;98413.28;;;-1.60;100.00
39363;BME280;25088;43.238;23.110;2022-12-20T05:55:06;98406.44;;;-1.52;100.00
39363;BME280;25088;43.238;23.110;2022-12-20T05:57:32;98403.91;;;-1.44;100.00
39363;BME280;25088;43.238;23.110;2022-12-20T05:59:57;98398.66;;;-1.56;100.00
39363;BME280;25088;43.238;23.110;2022-12-20T06:02:23;98400.09;;;-1.51;100.00
39363;BME280;25088;43.238;23.110;2022-12-20T06:04:48;98390.50;;;-1.54;100.00
39363;BME280;25088;43.238;23.110;2022-12-20T06:07:13;98401.25;;;-1.44;100.00
39363;BME280;25088;43.238;23.110;2022-12-20T06:09:38;98395.19;;;-1.46;100.00
39363;BME280;25088;43.238;23.110;2022-12-20T06:12:04;98387.72;;;-1.43;100.00
39363;BME280;25088;43.238;23.110;2022-12-20T06:14:29;98386.50;;;-1.39;100.00
39363;BME280;25088;43.238;23.110;2022-12-20T06:16:55;98390.28;;;-1.41;100.00
39363;BME280;25088;43.238;23.110;2022-12-20T06:19:20;98380.13;;;-1.38;100.00
39363;BME280;25088;43.238;23.110;2022-12-20T06:21:45;98386.34;;;-1.37;100.00
39363;BME280;25088;43.238;23.110;2022-12-20T06:24:11;98377.06;;;-1.33;100.00
39363;BME280;25088;43.238;23.110;2022-12-20T06:26:36;98380.00;;;-1.36;100.00
39363;BME280;25088;43.238;23.110;2022-12-20T06:29:02;98377.06;;;-1.33;100.00
39363;BME280;25088;43.238;23.110;2022-12-20T06:31:28;98378.31;;;-1.37;100.00
39363;BME280;25088;43.238;23.110;2022-12-20T06:33:54;98379.63;;;-1.22;100.00
39363;BME280;25088;43.238;23.110;2022-12-20T06:36:19;98384.69;;;-1.28;100.00
39363;BME280;25088;43.238;23.110;2022-12-20T06:38:44;98384.09;;;-1.32;100.00
39363;BME280;25088;43.238;23.110;2022-12-20T06:41:10;98387.41;;;-1.19;100.00
39363;BME280;25088;43.238;23.110;2022-12-20T06:43:35;98387.47;;;-0.99;100.00
39363;BME280;25088;43.238;23.110;2022-12-20T06:46:00;98388.97;;;-1.07;100.00
39363;BME280;25088;43.238;23.110;2022-12-20T06:48:25;98392.78;;;-1.09;100.00
39363;BME280;25088;43.238;23.110;2022-12-20T06:50:51;98388.41;;;-1.00;100.00
39363;BME280;25088;43.238;23.110;2022-12-20T06:53:16;98391.28;;;-0.92;100.00
39363;BME280;25088;43.238;23.110;2022-12-20T06:55:41;98383.66;;;-0.87;100.00
39363;BME280;25088;43.238;23.110;2022-12-20T06:58:07;98380.41;;;-0.81;100.00
39363;BME280;25088;43.238;23.110;2022-12-20T07:00:32;98382.53;;;-0.85;100.00
39363;BME280;25088;43.238;23.110;2022-12-20T07:02:57;98383.50;;;-0.86;100.00
39363;BME280;25088;43.238;23.110;2022-12-20T07:05:23;98382.41;;;-0.83;100.00
39363;BME280;25088;43.238;23.110;2022-12-20T07:07:48;98382.53;;;-0.85;100.00
39363;BME280;25088;43.238;23.110;2022-12-20T07:10:14;98378.47;;;-0.79;100.00
39363;BME280;25088;43.238;23.110;2022-12-20T07:12:39;98379.59;;;-0.72;100.00
39363;BME280;25088;43.238;23.110;2022-12-20T07:15:05;98386.38;;;-0.58;100.00
39363;BME280;25088;43.238;23.110;2022-12-20T07:17:31;98388.06;;;-0.57;100.00
39363;BME280;25088;43.238;23.110;2022-12-20T07:19:56;98381.28;;;-0.61;100.00
39363;BME280;25088;43.238;23.110;2022-12-20T07:22:21;98382.56;;;-0.65;100.00
39363;BME280;25088;43.238;23.110;2022-12-20T07:24:47;98390.75;;;-0.67;100.00
39363;BME280;25088;43.238;23.110;2022-12-20T07:27:12;98389.91;;;-0.67;100.00
39363;BME280;25088;43.238;23.110;2022-12-20T07:29:37;98393.84;;;-0.71;100.00
39363;BME280;25088;43.238;23.110;2022-12-20T07:32:05;98390.88;;;-0.78;100.00
39363;BME280;25088;43.238;23.110;2022-12-20T07:34:35;98393.69;;;-0.70;100.00
39363;BME280;25088;43.238;23.110;2022-12-20T07:37:00;98390.91;;;-0.68;100.00
39363;BME280;25088;43.238;23.110;2022-12-20T07:39:26;98387.34;;;-0.79;100.00
39363;BME280;25088;43.238;23.110;2022-12-20T07:41:54;98389.84;;;-0.96;100.00
39363;BME280;25088;43.238;23.110;2022-12-20T07:44:20;98390.13;;;-0.99;100.00
39363;BME280;25088;43.238;23.110;2022-12-20T07:46:45;98388.41;;;-1.10;100.00
39363;BME280;25088;43.238;23.110;2022-12-20T07:49:10;98391.81;;;-1.08;100.00
39363;BME280;25088;43.238;23.110;2022-12-20T07:51:37;98395.72;;;-1.22;100.00
39363;BME280;25088;43.238;23.110;2022-12-20T07:54:23;98397.75;;;-1.35;100.00
39363;BME280;25088;43.238;23.110;2022-12-20T07:56:51;98394.34;;;-1.47;100.00
39363;BME280;25088;43.238;23.110;2022-12-20T07:59:21;98392.94;;;-1.72;100.00
39363;BME280;25088;43.238;23.110;2022-12-20T08:01:48;98393.34;;;-1.76;100.00
39363;BME280;25088;43.238;23.110;2022-12-20T08:04:14;98389.28;;;-1.71;100.00
39363;BME280;25088;43.238;23.110;2022-12-20T08:06:42;98388.19;;;-1.68;100.00
39363;BME280;25088;43.238;23.110;2022-12-20T08:09:08;98390.13;;;-1.70;100.00
39363;BME280;25088;43.238;23.110;2022-12-20T08:11:34;98383.47;;;-1.76;100.00
39363;BME280;25088;43.238;23.110;2022-12-20T08:14:00;98384.31;;;-1.75;100.00
39363;BME280;25088;43.238;23.110;2022-12-20T08:16:26;98383.63;;;-1.77;100.00
39363;BME280;25088;43.238;23.110;2022-12-20T08:18:51;98386.00;;;-1.74;100.00
39363;BME280;25088;43.238;23.110;2022-12-20T08:21:16;98385.16;;;-1.75;100.00
39363;BME280;25088;43.238;23.110;2022-12-20T08:23:43;98387.84;;;-1.75;100.00
39363;BME280;25088;43.238;23.110;2022-12-20T08:26:08;98380.94;;;-1.77;100.00
39363;BME280;25088;43.238;23.110;2022-12-20T08:28:34;98381.78;;;-1.77;100.00
39363;BME280;25088;43.238;23.110;2022-12-20T08:31:02;98381.53;;;-1.74;100.00
39363;BME280;25088;43.238;23.110;2022-12-20T08:33:28;98377.97;;;-1.53;100.00
39363;BME280;25088;43.238;23.110;2022-12-20T08:35:57;98369.09;;;-1.54;100.00
39363;BME280;25088;43.238;23.110;2022-12-20T08:38:26;98375.28;;;-1.53;100.00
39363;BME280;25088;43.238;23.110;2022-12-20T08:40:52;98372.16;;;-1.59;100.00
39363;BME280;25088;43.238;23.110;2022-12-20T08:43:18;98375.59;;;-1.47;100.00
39363;BME280;25088;43.238;23.110;2022-12-20T08:45:43;98365.06;;;-1.39;100.00
39363;BME280;25088;43.238;23.110;2022-12-20T08:48:08;98359.41;;;-1.36;100.00
39363;BME280;25088;43.238;23.110;2022-12-20T08:50:33;98355.88;;;-1.36;100.00
39363;BME280;25088;43.238;23.110;2022-12-20T08:53:00;98357.47;;;-1.34;100.00
39363;BME280;25088;43.238;23.110;2022-12-20T08:55:25;98353.91;;;-1.44;100.00
39363;BME280;25088;43.238;23.110;2022-12-20T08:57:50;98351.66;;;-1.39;100.00
39363;BME280;25088;43.238;23.110;2022-12-20T09:00:16;98343.47;;;-1.37;100.00
39363;BME280;25088;43.238;23.110;2022-12-20T09:02:41;98346.81;;;-1.45;100.00
39363;BME280;25088;43.238;23.110;2022-12-20T09:05:07;98333.44;;;-1.45;100.00
39363;BME280;25088;43.238;23.110;2022-12-20T09:07:32;98327.38;;;-1.47;100.00
39363;BME280;25088;43.238;23.110;2022-12-20T09:09:58;98329.34;;;-1.49;100.00
39363;BME280;25088;43.238;23.110;2022-12-20T09:12:23;98320.72;;;-1.52;100.00
39363;BME280;25088;43.238;23.110;2022-12-20T09:14:48;98315.97;;;-1.49;100.00
39363;BME280;25088;43.238;23.110;2022-12-20T09:17:13;98309.72;;;-1.49;100.00
39363;BME280;25088;43.238;23.110;2022-12-20T09:19:39;98304.47;;;-1.61;100.00
39363;BME280;25088;43.238;23.110;2022-12-20T09:22:04;98297.88;;;-1.57;100.00
39363;BME280;25088;43.238;23.110;2022-12-20T09:24:29;98294.63;;;-1.60;100.00
39363;BME280;25088;43.238;23.110;2022-12-20T09:26:55;98295.78;;;-1.53;100.00
39363;BME280;25088;43.238;23.110;2022-12-20T09:29:20;98293.69;;;-1.40;100.00
39363;BME280;25088;43.238;23.110;2022-12-20T09:31:47;98284.41;;;-1.36;100.00
39363;BME280;25088;43.238;23.110;2022-12-20T09:34:13;98286.19;;;-1.46;100.00
39363;BME280;25088;43.238;23.110;2022-12-20T09:36:39;98281.84;;;-1.47;100.00
39363;BME280;25088;43.238;23.110;2022-12-20T09:39:04;98278.28;;;-1.57;100.00
39363;BME280;25088;43.238;23.110;2022-12-20T09:41:33;98278.25;;;-1.67;100.00
39363;BME280;25088;43.238;23.110;2022-12-20T09:46:39;98268.66;;;-1.79;100.00
39363;BME280;25088;43.238;23.110;2022-12-20T09:49:05;98262.56;;;-1.81;100.00
39363;BME280;25088;43.238;23.110;2022-12-20T09:54:06;98244.22;;;-1.86;100.00
39363;BME280;25088;43.238;23.110;2022-12-20T09:56:43;98243.56;;;-1.78;100.00
39363;BME280;25088;43.238;23.110;2022-12-20T10:01:34;98219.78;;;-1.62;100.00
39363;BME280;25088;43.238;23.110;2022-12-20T10:04:05;98222.47;;;-1.62;100.00
39363;BME280;25088;43.238;23.110;2022-12-20T10:09:00;98219.38;;;-1.47;100.00
39363;BME280;25088;43.238;23.110;2022-12-20T10:22:25;98219.38;;;-1.47;100.00
39363;BME280;25088;43.238;23.110;2022-12-20T10:27:47;98212.19;;;-1.57;100.00
39363;BME280;25088;43.238;23.110;2022-12-20T10:30:15;98210.47;;;-1.67;100.00
39363;BME280;25088;43.238;23.110;2022-12-20T10:32:42;98201.59;;;-1.68;100.00
39363;BME280;25088;43.238;23.110;2022-12-20T10:37:34;98204.81;;;-1.74;100.00
39363;BME280;25088;43.238;23.110;2022-12-20T10:39:59;98201.28;;;-1.74;100.00
39363;BME280;25088;43.238;23.110;2022-12-20T10:42:26;98202.44;;;-1.67;100.00
39363;BME280;25088;43.238;23.110;2022-12-20T10:44:54;98201.19;;;-1.63;100.00
39363;BME280;25088;43.238;23.110;2022-12-20T10:47:28;98197.50;;;-1.62;100.00
39363;BME280;25088;43.238;23.110;2022-12-20T10:55:40;98197.06;;;-1.77;100.00
39363;BME280;25088;43.238;23.110;2022-12-20T10:58:11;98195.19;;;-1.86;100.00
39363;BME280;25088;43.238;23.110;2022-12-20T11:00:38;98199.88;;;-1.78;100.00
39363;BME280;25088;43.238;23.110;2022-12-20T11:03:10;98190.88;;;-1.77;100.00
39363;BME280;25088;43.238;23.110;2022-12-20T11:05:35;98199.56;;;-1.85;100.00
39363;BME280;25088;43.238;23.110;2022-12-20T11:08:15;98189.41;;;-1.91;100.00
39363;BME280;25088;43.238;23.110;2022-12-20T11:10:41;98191.66;;;-1.96;100.00
39363;BME280;25088;43.238;23.110;2022-12-20T11:13:09;98182.78;;;-1.97;100.00
39363;BME280;25088;43.238;23.110;2022-12-20T11:15:46;98187.72;;;-1.92;100.00
39363;BME280;25088;43.238;23.110;2022-12-20T11:18:14;98194.50;;;-1.88;100.00
39363;BME280;25088;43.238;23.110;2022-12-20T11:40:54;98190.47;;;-2.13;100.00
39363;BME280;25088;43.238;23.110;2022-12-20T11:43:38;98173.00;;;-2.17;100.00
39363;BME280;25088;43.238;23.110;2022-12-20T11:51:03;98163.84;;;-2.15;100.00
39363;BME280;25088;43.238;23.110;2022-12-20T11:53:42;98159.47;;;-2.16;100.00
39363;BME280;25088;43.238;23.110;2022-12-20T11:58:56;98154.97;;;-2.15;100.00
39363;BME280;25088;43.238;23.110;2022-12-20T12:01:27;98148.75;;;-2.25;100.00
39363;BME280;25088;43.238;23.110;2022-12-20T12:03:59;98147.59;;;-2.32;100.00
39363;BME280;25088;43.238;23.110;2022-12-20T12:06:32;98144.09;;;-2.33;100.00
39363;BME280;25088;43.238;23.110;2022-12-20T12:09:07;98137.44;;;-2.39;100.00
39363;BME280;25088;43.238;23.110;2022-12-20T12:11:37;98124.22;;;-2.30;100.00
39363;BME280;25088;43.238;23.110;2022-12-20T12:14:04;98123.69;;;-2.24;100.00
39363;BME280;25088;43.238;23.110;2022-12-20T12:16:34;98121.72;;;-2.22;100.00
39363;BME280;25088;43.238;23.110;2022-12-20T12:19:01;98124.53;;;-2.24;100.00
39363;BME280;25088;43.238;23.110;2022-12-20T12:21:33;98117.91;;;-2.20;100.00
39363;BME280;25088;43.238;23.110;2022-12-20T12:26:32;98103.56;;;-2.28;100.00
39363;BME280;25088;43.238;23.110;2022-12-20T12:47:24;98048.63;;;-2.42;100.00
39363;BME280;25088;43.238;23.110;2022-12-20T12:49:53;98074.16;;;-2.19;100.00
39363;BME280;25088;43.238;23.110;2022-12-20T12:52:53;98074.16;;;-2.19;100.00
39363;BME280;25088;43.238;23.110;2022-12-20T13:00:56;98072.72;;;-2.32;100.00
39363;BME280;25088;43.238;23.110;2022-12-20T13:08:47;98054.84;;;-2.32;100.00
39363;BME280;25088;43.238;23.110;2022-12-20T13:11:14;98061.16;;;-2.33;100.00
39363;BME280;25088;43.238;23.110;2022-12-20T13:14:09;98058.91;;;-2.38;100.00
39363;BME280;25088;43.238;23.110;2022-12-20T13:16:36;98059.72;;;-2.47;100.00
39363;BME280;25088;43.238;23.110;2022-12-20T13:19:09;98052.81;;;-2.49;100.00
39363;BME280;25088;43.238;23.110;2022-12-20T13:21:36;98060.72;;;-2.48;100.00
39363;BME280;25088;43.238;23.110;2022-12-20T13:27:01;98061.47;;;-2.67;100.00
39363;BME280;25088;43.238;23.110;2022-12-20T13:29:31;98048.38;;;-2.70;100.00
39363;BME280;25088;43.238;23.110;2022-12-20T13:31:57;98058.09;;;-2.69;100.00
39363;BME280;25088;43.238;23.110;2022-12-20T13:34:52;98058.41;;;-2.62;100.00
39363;BME280;25088;43.238;23.110;2022-12-20T13:37:24;98054.75;;;-2.61;100.00
39363;BME280;25088;43.238;23.110;2022-12-20T13:39:50;98048.16;;;-2.57;100.00
39363;BME280;25088;43.238;23.110;2022-12-20T13:42:26;98048.84;;;-2.55;100.00
39363;BME280;25088;43.238;23.110;2022-12-20T13:44:54;98048.59;;;-2.52;100.00
39363;BME280;25088;43.238;23.110;2022-12-20T13:47:36;98042.41;;;-2.52;100.00
39363;BME280;25088;43.238;23.110;2022-12-20T13:50:22;98041.66;;;-2.54;100.00
39363;BME280;25088;43.238;23.110;2022-12-20T13:52:48;98035.44;;;-2.65;100.00
39363;BME280;25088;43.238;23.110;2022-12-20T13:55:16;98043.31;;;-2.73;100.00
39363;BME280;25088;43.238;23.110;2022-12-20T13:57:47;98026.69;;;-2.76;100.00
39363;BME280;25088;43.238;23.110;2022-12-20T14:00:23;98033.88;;;-2.77;100.00
39363;BME280;25088;43.238;23.110;2022-12-20T14:02:52;98033.19;;;-2.69;100.00
39363;BME280;25088;43.238;23.110;2022-12-20T14:05:24;98033.91;;;-2.67;100.00
39363;BME280;25088;43.238;23.110;2022-12-20T14:08:00;98026.72;;;-2.67;100.00
39363;BME280;25088;43.238;23.110;2022-12-20T14:10:29;98025.75;;;-2.66;100.00
39363;BME280;25088;43.238;23.110;2022-12-20T14:12:56;98022.38;;;-2.68;100.00
39363;BME280;25088;43.238;23.110;2022-12-20T14:15:28;98018.88;;;-2.68;100.00
39363;BME280;25088;43.238;23.110;2022-12-20T14:17:54;98022.78;;;-2.72;100.00
39363;BME280;25088;43.238;23.110;2022-12-20T14:20:23;98014.31;;;-2.77;100.00
39363;BME280;25088;43.238;23.110;2022-12-20T14:23:09;97982.75;;;-3.03;100.00
39363;BME280;25088;43.238;23.110;2022-12-20T14:28:01;98001.63;;;-2.85;100.00
39363;BME280;25088;43.238;23.110;2022-12-20T14:32:53;98001.22;;;-2.80;100.00
39363;BME280;25088;43.238;23.110;2022-12-20T14:35:19;97999.69;;;-2.83;100.00